createdAt,value
2018-03-21T00:01:30.157Z,80.40
2018-03-21T00:03:57.619Z,80.00
2018-03-21T00:06:25.101Z,80.00
2018-03-21T00:08:52.606Z,80.00
2018-03-21T00:11:20.054Z,80.10
2018-03-21T00:13:47.582Z,80.00
2018-03-21T00:16:15.807Z,79.70
2018-03-21T00:18:43.322Z,79.70
2018-03-21T00:21:11.582Z,79.30
2018-03-21T00:23:39.057Z,79.30
2018-03-21T00:26:07.326Z,78.80
2018-03-21T00:28:35.551Z,79.20
2018-03-21T00:31:03.005Z,79.20
2018-03-21T00:33:30.491Z,79.70
2018-03-21T00:35:57.946Z,79.50
2018-03-21T00:38:25.430Z,79.70
2018-03-21T00:40:53.650Z,80.10
2018-03-21T00:43:21.146Z,80.10
2018-03-21T00:45:49.369Z,80.20
2018-03-21T00:48:16.867Z,80.20
2018-03-21T00:50:44.331Z,80.10
2018-03-21T00:53:12.586Z,79.50
2018-03-21T00:55:40.114Z,79.50
2018-03-21T00:58:07.626Z,79.70
2018-03-21T01:00:35.871Z,80.10
2018-03-21T01:03:03.326Z,80.00
2018-03-21T01:05:30.818Z,80.10
2018-03-21T01:07:59.041Z,79.70
2018-03-21T01:10:26.524Z,79.70
2018-03-21T01:12:53.980Z,79.50
2018-03-21T01:15:21.473Z,80.00
2018-03-21T01:17:48.945Z,79.70
2018-03-21T01:20:16.404Z,79.50
2018-03-21T01:22:43.890Z,78.80
2018-03-21T01:25:11.342Z,78.80
2018-03-21T01:27:38.833Z,78.70
2018-03-21T01:30:07.061Z,78.40
2018-03-21T01:32:34.541Z,79.00
2018-03-21T01:35:01.998Z,78.60
2018-03-21T01:37:29.487Z,78.70
2018-03-21T01:39:56.985Z,78.50
2018-03-21T01:42:24.445Z,78.70
2018-03-21T01:44:51.939Z,78.60
2018-03-21T01:47:20.171Z,78.20
2018-03-21T01:49:47.658Z,78.20
2018-03-21T01:52:15.218Z,78.00
2018-03-21T01:54:42.703Z,77.40
2018-03-21T01:57:10.943Z,77.10
2018-03-21T01:59:38.398Z,77.10
2018-03-21T02:02:05.877Z,77.00
2018-03-21T02:04:33.354Z,77.20
2018-03-21T02:07:00.833Z,77.60
2018-03-21T02:09:28.324Z,77.80
2018-03-21T02:11:55.806Z,77.70
2018-03-21T02:14:24.060Z,77.60
2018-03-21T02:16:51.531Z,77.50
2018-03-21T02:19:19.784Z,76.50
2018-03-21T02:21:47.242Z,76.50
2018-03-21T02:24:14.731Z,77.20
2018-03-21T02:26:42.254Z,78.20
2018-03-21T02:29:09.815Z,76.90
2018-03-21T02:31:37.359Z,77.40
2018-03-21T02:34:04.872Z,77.50
2018-03-21T02:36:32.345Z,77.50
2018-03-21T02:38:59.848Z,77.20
2018-03-21T02:41:27.404Z,77.10
2018-03-21T02:43:54.962Z,76.00
2018-03-21T02:46:22.421Z,75.70
2018-03-21T02:48:49.901Z,76.50
2018-03-21T02:51:17.372Z,76.50
2018-03-21T02:53:44.863Z,75.90
2018-03-21T02:56:12.352Z,75.40
2018-03-21T02:58:40.816Z,75.70
2018-03-21T03:01:08.315Z,75.70
2018-03-21T03:03:35.773Z,75.60
2018-03-21T03:06:03.267Z,75.30
2018-03-21T03:08:30.730Z,75.30
2018-03-21T03:10:58.194Z,75.20
2018-03-21T03:13:25.681Z,75.40
2018-03-21T03:15:53.937Z,75.80
2018-03-21T03:18:21.442Z,75.80
2018-03-21T03:20:48.991Z,75.90
2018-03-21T03:23:16.444Z,75.80
2018-03-21T03:25:43.911Z,75.50
2018-03-21T03:28:11.379Z,75.00
2018-03-21T03:30:38.880Z,74.70
2018-03-21T03:33:07.142Z,74.60
2018-03-21T03:35:34.643Z,74.60
2018-03-21T03:38:02.140Z,74.70
2018-03-21T03:40:29.609Z,74.80
2018-03-21T03:42:57.163Z,75.00
2018-03-21T03:45:24.720Z,74.90
2018-03-21T03:47:52.232Z,74.80
2018-03-21T03:50:19.702Z,75.20
2018-03-21T03:52:47.173Z,75.10
2018-03-21T03:55:14.669Z,75.00
2018-03-21T03:57:42.894Z,74.80
2018-03-21T04:00:10.386Z,74.70
2018-03-21T04:02:37.846Z,74.60
2018-03-21T04:05:06.094Z,74.70
2018-03-21T04:07:33.574Z,74.50
2018-03-21T04:10:01.846Z,73.90
2018-03-21T04:12:29.332Z,73.80
2018-03-21T04:14:56.802Z,73.40
2018-03-21T04:17:24.414Z,73.60
2018-03-21T04:19:51.883Z,72.50
2018-03-21T04:22:20.149Z,73.70
2018-03-21T04:24:48.380Z,73.80
2018-03-21T04:27:15.880Z,73.70
2018-03-21T04:29:44.161Z,73.90
2018-03-21T04:32:12.396Z,73.20
2018-03-21T04:34:39.882Z,73.10
2018-03-21T04:37:08.113Z,72.90
2018-03-21T04:39:35.593Z,72.90
2018-03-21T04:42:03.074Z,72.90
2018-03-21T04:44:31.337Z,72.00
2018-03-21T04:46:58.797Z,72.00
2018-03-21T04:49:26.296Z,72.00
2018-03-21T04:51:53.757Z,72.00
2018-03-21T04:54:21.239Z,71.50
2018-03-21T04:56:48.700Z,72.00
2018-03-21T04:59:16.352Z,72.20
2018-03-21T05:01:43.818Z,72.20
2018-03-21T05:04:11.457Z,72.40
2018-03-21T05:06:38.925Z,72.20
2018-03-21T05:09:07.522Z,72.10
2018-03-21T05:11:35.053Z,72.00
2018-03-21T05:14:03.029Z,72.20
2018-03-21T05:16:30.538Z,71.70
2018-03-21T05:18:57.994Z,71.80
2018-03-21T05:21:25.462Z,70.80
2018-03-21T05:23:52.949Z,70.40
2018-03-21T05:26:20.427Z,69.90
2018-03-21T05:28:48.243Z,68.50
2018-03-21T05:31:15.731Z,68.40
2018-03-21T05:33:43.195Z,68.70
2018-03-21T05:36:10.762Z,68.40
2018-03-21T05:38:38.287Z,68.20
2018-03-21T05:41:05.771Z,68.10
2018-03-21T05:43:33.238Z,67.90
2018-03-21T05:46:00.690Z,67.60
2018-03-21T05:48:28.249Z,67.80
2018-03-21T05:50:57.347Z,67.70
2018-03-21T05:53:25.591Z,67.00
2018-03-21T05:55:53.048Z,66.90
2018-03-21T05:58:20.622Z,66.40
2018-03-21T06:00:48.090Z,66.40
2018-03-21T06:03:15.555Z,66.30
2018-03-21T06:05:43.033Z,66.40
2018-03-21T06:08:10.491Z,66.50
2018-03-21T06:10:37.963Z,66.60
2018-03-21T06:13:05.464Z,66.40
2018-03-21T06:15:32.947Z,66.10
2018-03-21T06:18:01.199Z,66.10
2018-03-21T06:20:28.697Z,66.10
2018-03-21T06:22:56.221Z,66.00
2018-03-21T06:25:23.772Z,66.00
2018-03-21T06:27:51.237Z,66.10
2018-03-21T06:30:19.473Z,65.80
2018-03-21T06:32:46.929Z,65.50
2018-03-21T06:35:14.392Z,65.40
2018-03-21T06:37:41.899Z,65.40
2018-03-21T06:40:10.113Z,65.20
2018-03-21T06:42:37.572Z,65.20
2018-03-21T06:45:05.246Z,65.20
2018-03-21T06:47:32.704Z,64.90
2018-03-21T06:50:01.030Z,65.10
2018-03-21T06:52:28.460Z,65.10
2018-03-21T06:54:56.719Z,65.30
2018-03-21T06:57:24.186Z,65.30
2018-03-21T06:59:52.652Z,65.50
2018-03-21T07:02:20.928Z,65.60
2018-03-21T07:04:49.152Z,65.60
2018-03-21T07:07:16.651Z,65.60
2018-03-21T07:09:44.243Z,65.40
2018-03-21T07:12:11.677Z,65.30
2018-03-21T07:14:51.165Z,65.40
2018-03-21T07:17:18.656Z,64.00
2018-03-21T07:19:46.117Z,63.50
2018-03-21T07:22:13.607Z,62.70
2018-03-21T07:24:41.074Z,62.20
2018-03-21T07:27:08.533Z,62.30
2018-03-21T07:29:36.046Z,62.20
2018-03-21T07:32:03.503Z,62.20
2018-03-21T07:34:31.738Z,61.40
2018-03-21T07:36:59.226Z,61.30
2018-03-21T07:39:26.696Z,60.90
2018-03-21T07:41:54.922Z,60.80
2018-03-21T07:44:22.410Z,60.60
2018-03-21T07:46:49.965Z,60.70
2018-03-21T07:49:17.524Z,60.20
2018-03-21T07:51:45.185Z,59.80
2018-03-21T07:54:12.656Z,59.80
2018-03-21T07:56:40.901Z,58.40
2018-03-21T07:59:08.431Z,58.40
2018-03-21T08:01:35.890Z,58.40
2018-03-21T08:04:03.491Z,58.70
2018-03-21T08:06:30.969Z,59.80
2018-03-21T08:08:59.206Z,60.80
2018-03-21T08:11:28.094Z,60.80
2018-03-21T08:13:55.586Z,60.90
2018-03-21T08:16:23.142Z,61.50
2018-03-21T08:18:50.698Z,61.80
2018-03-21T08:21:18.191Z,61.90
2018-03-21T08:23:45.709Z,63.10
2018-03-21T08:26:13.182Z,62.90
2018-03-21T08:28:41.422Z,63.00
2018-03-21T08:31:08.884Z,63.00
2018-03-21T08:33:36.361Z,62.90
2018-03-21T08:36:03.929Z,62.90
2018-03-21T08:38:31.378Z,63.00
2018-03-21T08:40:59.691Z,62.10
2018-03-21T08:43:27.164Z,62.10
2018-03-21T08:45:54.651Z,62.00
2018-03-21T08:48:22.112Z,61.50
2018-03-21T08:50:49.582Z,61.00
2018-03-21T08:53:17.799Z,58.70
2018-03-21T08:55:45.291Z,58.70
2018-03-21T08:58:12.758Z,58.90
2018-03-21T09:00:40.239Z,59.10
2018-03-21T09:03:07.701Z,58.50
2018-03-21T09:05:35.223Z,58.40
2018-03-21T09:08:02.778Z,58.70
2018-03-21T09:10:30.329Z,58.70
2018-03-21T09:12:57.945Z,57.80
2018-03-21T09:15:25.377Z,57.60
2018-03-21T09:17:52.842Z,57.20
2018-03-21T09:20:20.409Z,55.90
2018-03-21T09:22:47.918Z,55.50
2018-03-21T09:25:15.479Z,53.90
2018-03-21T09:27:42.941Z,54.00
2018-03-21T09:30:10.491Z,55.10
2018-03-21T09:32:38.049Z,55.70
2018-03-21T09:35:05.513Z,55.80
2018-03-21T09:37:33.774Z,56.10
2018-03-21T09:40:01.249Z,55.50
2018-03-21T09:42:29.510Z,53.50
2018-03-21T09:44:57.068Z,53.50
2018-03-21T09:47:24.552Z,53.20
2018-03-21T09:49:52.059Z,53.00
2018-03-21T09:52:19.517Z,53.20
2018-03-21T09:54:46.989Z,53.40
2018-03-21T09:57:14.446Z,52.50
2018-03-21T09:59:42.039Z,52.60
2018-03-21T10:02:10.281Z,53.20
2018-03-21T10:04:37.754Z,53.20
2018-03-21T10:07:06.531Z,51.30
2018-03-21T10:09:33.995Z,51.30
2018-03-21T10:12:02.261Z,50.00
2018-03-21T10:14:29.718Z,50.10
2018-03-21T10:16:57.949Z,51.70
2018-03-21T10:19:25.601Z,51.70
2018-03-21T10:21:53.952Z,51.10
2018-03-21T10:24:22.275Z,50.30
2018-03-21T10:26:49.946Z,50.30
2018-03-21T10:29:17.438Z,50.20
2018-03-21T10:31:44.858Z,49.60
2018-03-21T10:34:12.340Z,49.40
2018-03-21T10:36:40.608Z,50.70
2018-03-21T10:39:08.155Z,50.70
2018-03-21T10:41:35.930Z,50.90
2018-03-21T10:44:04.154Z,49.90
2018-03-21T10:46:31.646Z,49.80
2018-03-21T10:49:00.123Z,48.90
2018-03-21T10:51:27.595Z,49.50
2018-03-21T10:53:55.064Z,48.10
2018-03-21T10:56:23.457Z,48.30
2018-03-21T10:58:50.966Z,48.30
2018-03-21T11:01:24.634Z,49.10
2018-03-21T11:03:56.178Z,49.40
2018-03-21T11:06:24.128Z,48.80
2018-03-21T11:08:51.683Z,48.00
2018-03-21T11:11:19.981Z,47.20
2018-03-21T11:13:47.936Z,47.20
2018-03-21T11:16:15.515Z,47.40
2018-03-21T11:18:43.018Z,47.80
2018-03-21T11:21:10.473Z,47.20
2018-03-21T11:23:38.770Z,47.40
2018-03-21T11:26:06.991Z,48.00
2018-03-21T11:28:34.476Z,48.00
2018-03-21T11:31:02.702Z,46.10
2018-03-21T11:33:30.221Z,46.10
2018-03-21T11:35:58.454Z,48.20
2018-03-21T11:38:25.926Z,48.20
2018-03-21T11:40:54.207Z,46.90
2018-03-21T11:43:22.442Z,46.50
2018-03-21T11:45:49.960Z,46.50
2018-03-21T11:48:18.201Z,47.10
2018-03-21T11:50:45.674Z,47.10
2018-03-21T11:53:13.138Z,47.20
2018-03-21T11:55:41.382Z,46.10
2018-03-21T11:58:08.849Z,46.10
2018-03-21T12:00:36.406Z,45.70
2018-03-21T12:03:03.866Z,46.80
2018-03-21T12:05:31.331Z,47.30
2018-03-21T12:07:58.781Z,47.50
2018-03-21T12:10:26.238Z,46.90
2018-03-21T12:12:53.785Z,45.20
2018-03-21T12:15:21.242Z,45.20
2018-03-21T12:17:48.716Z,45.80
2018-03-21T12:20:16.963Z,45.10
2018-03-21T12:22:44.414Z,45.10
2018-03-21T12:25:11.998Z,44.30
2018-03-21T12:27:39.469Z,43.20
2018-03-21T12:30:07.711Z,43.30
2018-03-21T12:32:35.281Z,43.40
2018-03-21T12:35:02.755Z,43.30
2018-03-21T12:37:30.985Z,42.10
2018-03-21T12:39:58.451Z,42.00
2018-03-21T12:42:25.912Z,41.70
2018-03-21T12:44:53.547Z,42.50
2018-03-21T12:47:21.049Z,42.20
2018-03-21T12:49:48.511Z,42.10
2018-03-21T12:52:16.734Z,41.80
2018-03-21T12:54:44.205Z,41.80
2018-03-21T12:57:11.762Z,39.50
2018-03-21T12:59:39.222Z,38.90
2018-03-21T13:02:06.682Z,39.50
2018-03-21T13:04:34.435Z,41.40
2018-03-21T13:07:01.910Z,41.70
2018-03-21T13:09:29.457Z,41.10
2018-03-21T13:11:57.775Z,41.50
2018-03-21T13:14:25.254Z,41.60
2018-03-21T13:16:52.829Z,41.30
2018-03-21T13:19:23.402Z,41.50
2018-03-21T13:21:51.124Z,42.00
2018-03-21T13:24:18.644Z,40.90
2018-03-21T13:26:46.329Z,40.80
2018-03-21T13:29:13.818Z,39.80
2018-03-21T13:31:41.278Z,40.60
2018-03-21T13:34:08.758Z,39.70
2018-03-21T13:36:36.973Z,38.80
2018-03-21T13:39:04.454Z,38.80
2018-03-21T13:41:32.009Z,38.40
2018-03-21T13:43:59.465Z,38.30
2018-03-21T13:46:27.036Z,38.10
2018-03-21T13:48:54.501Z,38.60
2018-03-21T13:51:22.729Z,38.90
2018-03-21T13:53:50.214Z,38.90
2018-03-21T13:56:17.694Z,38.10
2018-03-21T13:58:45.904Z,35.70
2018-03-21T14:01:13.361Z,35.20
2018-03-21T14:03:40.858Z,35.60
2018-03-21T14:06:08.448Z,36.70
2018-03-21T14:08:36.954Z,36.20
2018-03-21T14:11:04.778Z,36.20
2018-03-21T14:13:32.226Z,38.90
2018-03-21T14:16:01.575Z,34.60
2018-03-21T14:18:32.051Z,30.60
2018-03-21T14:21:01.033Z,25.20
2018-03-21T14:23:28.503Z,25.10
2018-03-21T14:25:56.053Z,22.90
2018-03-21T14:28:23.611Z,21.40
2018-03-21T14:30:51.165Z,19.70
2018-03-21T14:33:18.635Z,18.10
2018-03-21T14:35:46.863Z,16.40
2018-03-21T14:38:14.310Z,16.40
2018-03-21T14:40:41.799Z,15.70
2018-03-21T14:43:09.257Z,15.50
2018-03-21T14:45:36.708Z,15.30
2018-03-21T14:48:04.191Z,14.70
2018-03-21T14:50:32.417Z,13.80
2018-03-21T14:52:59.880Z,13.80
2018-03-21T14:55:27.346Z,14.10
2018-03-21T14:57:54.810Z,13.90
2018-03-21T15:00:22.365Z,15.00
2018-03-21T15:02:49.827Z,16.90
2018-03-21T15:05:18.050Z,15.30
2018-03-21T15:07:45.549Z,15.30
2018-03-21T15:10:13.047Z,14.40
2018-03-21T15:12:40.552Z,15.30
2018-03-21T15:15:08.011Z,15.00
2018-03-21T15:17:35.617Z,14.60
2018-03-21T15:20:03.158Z,14.30
2018-03-21T15:22:31.378Z,13.90
2018-03-21T15:24:58.857Z,13.90
2018-03-21T15:27:26.306Z,13.90
2018-03-21T15:29:53.752Z,14.40
2018-03-21T15:32:21.286Z,14.10
2018-03-21T15:34:48.790Z,13.30
2018-03-21T15:37:16.248Z,13.20
2018-03-21T15:39:43.799Z,13.40
2018-03-21T15:42:11.348Z,13.20
2018-03-21T15:44:38.917Z,13.30
2018-03-21T15:47:06.386Z,13.00
2018-03-21T15:49:33.842Z,12.90
2018-03-21T15:52:01.301Z,13.30
2018-03-21T15:54:28.848Z,13.40
2018-03-21T15:56:56.307Z,13.20
2018-03-21T15:59:23.795Z,13.10
2018-03-21T16:01:51.273Z,13.50
2018-03-21T16:04:18.759Z,13.20
2018-03-21T16:06:46.221Z,13.10
2018-03-21T16:09:13.786Z,13.20
2018-03-21T16:11:41.246Z,13.80
2018-03-21T16:14:08.800Z,13.90
2018-03-21T16:16:36.374Z,14.40
2018-03-21T16:19:04.598Z,15.00
2018-03-21T16:21:32.931Z,14.90
2018-03-21T16:24:01.180Z,16.80
2018-03-21T16:26:28.645Z,16.70
2018-03-21T16:28:56.866Z,18.90
2018-03-21T16:31:24.338Z,18.50
2018-03-21T16:33:51.802Z,19.70
2018-03-21T16:36:19.257Z,20.80
2018-03-21T16:38:47.507Z,22.10
2018-03-21T16:41:14.961Z,22.10
2018-03-21T16:43:42.405Z,23.50
2018-03-21T16:46:09.880Z,24.30
2018-03-21T16:48:37.361Z,24.70
2018-03-21T16:51:04.810Z,25.80
2018-03-21T16:53:32.388Z,25.90
2018-03-21T16:56:00.210Z,26.10
2018-03-21T16:58:27.714Z,25.90
2018-03-21T17:00:55.196Z,26.10
2018-03-21T17:03:23.440Z,27.70
2018-03-21T17:05:51.074Z,27.70
2018-03-21T17:08:18.551Z,28.00
2018-03-21T17:10:46.001Z,28.60
2018-03-21T17:13:13.463Z,29.10
2018-03-21T17:15:41.018Z,29.60
2018-03-21T17:18:08.548Z,30.00
2018-03-21T17:20:36.002Z,31.30
2018-03-21T17:23:03.477Z,31.20
2018-03-21T17:25:30.954Z,31.10
2018-03-21T17:27:58.415Z,31.00
2018-03-21T17:30:26.648Z,32.60
2018-03-21T17:32:54.126Z,32.40
2018-03-21T17:35:21.594Z,33.40
2018-03-21T17:37:49.132Z,34.80
2018-03-21T17:40:16.603Z,35.70
2018-03-21T17:42:44.154Z,36.20
2018-03-21T17:45:11.633Z,36.50
2018-03-21T17:47:39.854Z,37.60
2018-03-21T17:50:07.301Z,37.60
2018-03-21T17:52:34.774Z,38.00
2018-03-21T17:55:02.279Z,38.50
2018-03-21T17:57:30.493Z,39.90
2018-03-21T17:59:57.961Z,39.90
2018-03-21T18:02:25.420Z,40.50
2018-03-21T18:04:52.875Z,41.00
2018-03-21T18:07:20.349Z,41.60
2018-03-21T18:09:47.810Z,41.90
2018-03-21T18:12:15.265Z,42.10
2018-03-21T18:14:42.735Z,42.60
2018-03-21T18:17:10.954Z,43.30
2018-03-21T18:19:38.411Z,43.30
2018-03-21T18:22:05.882Z,43.50
2018-03-21T18:24:33.522Z,43.60
2018-03-21T18:27:01.012Z,44.00
2018-03-21T18:29:28.480Z,44.20
2018-03-21T18:31:55.933Z,44.50
2018-03-21T18:34:23.390Z,44.70
2018-03-21T18:36:50.949Z,44.70
2018-03-21T18:39:19.172Z,45.00
2018-03-21T18:41:46.635Z,45.00
2018-03-21T18:44:14.113Z,45.10
2018-03-21T18:46:41.568Z,45.30
2018-03-21T18:49:09.098Z,45.50
2018-03-21T18:51:37.285Z,45.90
2018-03-21T18:54:04.741Z,45.80
2018-03-21T18:56:32.243Z,45.80
2018-03-21T18:58:59.690Z,45.90
2018-03-21T19:01:27.228Z,45.80
2018-03-21T19:03:54.690Z,46.40
2018-03-21T19:06:22.180Z,46.10
2018-03-21T19:08:49.646Z,46.20
2018-03-21T19:11:17.093Z,46.30
2018-03-21T19:13:44.605Z,46.40
2018-03-21T19:16:12.043Z,46.60
2018-03-21T19:18:39.521Z,46.80
2018-03-21T19:21:07.086Z,46.80
2018-03-21T19:23:34.568Z,46.90
2018-03-21T19:26:02.813Z,47.30
2018-03-21T19:28:30.479Z,47.20
2018-03-21T19:30:58.100Z,48.00
2018-03-21T19:33:25.599Z,48.20
2018-03-21T19:35:53.082Z,47.80
2018-03-21T19:38:20.542Z,47.80
2018-03-21T19:40:48.022Z,47.90
2018-03-21T19:43:15.502Z,47.90
2018-03-21T19:45:42.974Z,47.80
2018-03-21T19:48:10.471Z,48.00
2018-03-21T19:50:37.931Z,48.00
2018-03-21T19:53:05.418Z,48.20
2018-03-21T19:55:32.898Z,48.30
2018-03-21T19:58:00.580Z,48.40
2018-03-21T20:00:28.122Z,48.60
2018-03-21T20:02:55.574Z,48.80
2018-03-21T20:05:23.031Z,49.00
2018-03-21T20:07:50.527Z,49.80
2018-03-21T20:10:18.015Z,49.00
2018-03-21T20:12:46.087Z,49.00
2018-03-21T20:15:13.671Z,49.10
2018-03-21T20:17:41.321Z,49.10
2018-03-21T20:20:09.038Z,48.90
2018-03-21T20:22:36.550Z,48.90
2018-03-21T20:25:04.010Z,48.80
2018-03-21T20:27:31.553Z,49.40
2018-03-21T20:29:59.017Z,49.10
2018-03-21T20:32:26.577Z,49.30
2018-03-21T20:34:54.133Z,49.40
2018-03-21T20:37:21.693Z,49.30
2018-03-21T20:39:49.247Z,49.30
2018-03-21T20:42:16.820Z,49.30
2018-03-21T20:44:44.279Z,49.20
2018-03-21T20:47:12.532Z,49.10
2018-03-21T20:52:30.694Z,49.20
2018-03-21T20:54:58.919Z,49.20
2018-03-21T20:57:26.404Z,49.20
2018-03-21T20:59:53.887Z,49.20
2018-03-21T21:02:21.487Z,49.20
2018-03-21T21:04:49.006Z,49.00
2018-03-21T21:07:16.461Z,49.30
2018-03-21T21:09:44.743Z,49.30
2018-03-21T21:12:12.218Z,49.30
2018-03-21T21:14:39.686Z,49.30
2018-03-21T21:17:07.173Z,49.40
2018-03-21T21:19:34.629Z,49.40
2018-03-21T21:22:02.114Z,49.50
2018-03-21T21:24:29.570Z,49.50
2018-03-21T21:26:57.830Z,49.70
2018-03-21T21:29:25.413Z,49.70
2018-03-21T21:31:52.890Z,49.50
2018-03-21T21:34:20.363Z,49.40
2018-03-21T21:36:47.815Z,49.20
2018-03-21T21:39:15.314Z,49.40
2018-03-21T21:41:42.888Z,49.40
2018-03-21T21:44:10.450Z,49.30
2018-03-21T21:46:38.679Z,49.40
2018-03-21T21:49:06.262Z,49.40
2018-03-21T21:51:33.738Z,49.30
2018-03-21T21:54:02.094Z,49.20
2018-03-21T21:56:29.548Z,49.20
2018-03-21T21:58:57.110Z,49.30
2018-03-21T22:01:24.602Z,49.40
2018-03-21T22:03:52.063Z,49.40
2018-03-21T22:06:19.541Z,49.20
2018-03-21T22:08:46.997Z,49.40
2018-03-21T22:11:14.483Z,49.50
2018-03-21T22:13:41.948Z,49.50
2018-03-21T22:16:09.430Z,49.50
2018-03-21T22:18:37.654Z,49.70
2018-03-21T22:21:05.238Z,49.70
2018-03-21T22:23:33.474Z,49.40
2018-03-21T22:26:00.957Z,49.40
2018-03-21T22:28:28.436Z,49.30
2018-03-21T22:30:56.668Z,49.30
2018-03-21T22:33:24.157Z,49.20
2018-03-21T22:35:51.628Z,49.30
2018-03-21T22:38:19.853Z,49.40
2018-03-21T22:40:47.354Z,49.40
2018-03-21T22:43:15.792Z,49.20
2018-03-21T22:45:43.246Z,49.20
2018-03-21T22:48:11.875Z,49.10
2018-03-21T22:50:39.325Z,49.00
2018-03-21T22:53:06.805Z,48.80
2018-03-21T22:55:35.034Z,48.90
2018-03-21T22:58:02.517Z,48.90
2018-03-21T23:00:30.001Z,49.10
2018-03-21T23:02:58.225Z,49.30
2018-03-21T23:05:25.714Z,49.20
2018-03-21T23:07:53.205Z,49.30
2018-03-21T23:10:21.449Z,49.50
2018-03-21T23:12:49.010Z,49.50
2018-03-21T23:15:16.487Z,49.60
2018-03-21T23:17:44.744Z,49.50
2018-03-21T23:20:12.197Z,49.50
2018-03-21T23:22:39.760Z,49.50
2018-03-21T23:25:07.323Z,49.60
2018-03-21T23:27:34.865Z,49.80
2018-03-21T23:30:02.330Z,49.50
2018-03-21T23:32:29.799Z,49.60
2018-03-21T23:34:58.163Z,49.70
2018-03-21T23:37:25.629Z,49.70
2018-03-21T23:39:53.112Z,49.70
2018-03-21T23:42:20.589Z,50.10
2018-03-21T23:44:48.043Z,49.70
2018-03-21T23:47:15.540Z,49.60
2018-03-21T23:49:43.011Z,49.70
2018-03-21T23:52:11.265Z,49.70
2018-03-21T23:54:38.730Z,49.70
2018-03-21T23:57:06.219Z,49.50
2018-03-21T23:59:33.678Z,49.60
